sensor_id;sensor_type;location;lat;lon;timestamp;temperature;humidity
19258;DHT22;9763;48.780;9.212;2022-11-24T00:00:00;9.10;91.30
19258;DHT22;9763;48.780;9.212;2022-11-24T00:03:26;9.20;91.20
19258;DHT22;9763;48.780;9.212;2022-11-24T00:06:50;9.20;90.80
19258;DHT22;9763;48.780;9.212;2022-11-24T00:10:15;9.20;90.50
19258;DHT22;9763;48.780;9.212;2022-11-24T00:13:41;9.20;90.80
19258;DHT22;9763;48.780;9.212;2022-11-24T00:17:05;9.20;91.10
19258;DHT22;9763;48.780;9.212;2022-11-24T00:20:29;9.20;91.60
19258;DHT22;9763;48.780;9.212;2022-11-24T00:23:53;9.20;92.30
19258;DHT22;9763;48.780;9.212;2022-11-24T00:27:17;9.30;92.90
19258;DHT22;9763;48.780;9.212;2022-11-24T00:30:42;9.30;93.30
19258;DHT22;9763;48.780;9.212;2022-11-24T00:34:09;9.40;93.50
19258;DHT22;9763;48.780;9.212;2022-11-24T00:37:34;9.40;93.50
19258;DHT22;9763;48.780;9.212;2022-11-24T00:40:58;9.50;93.70
19258;DHT22;9763;48.780;9.212;2022-11-24T00:44:21;9.60;93.80
19258;DHT22;9763;48.780;9.212;2022-11-24T00:47:46;9.60;93.90
19258;DHT22;9763;48.780;9.212;2022-11-24T00:51:12;9.70;93.90
19258;DHT22;9763;48.780;9.212;2022-11-24T00:54:37;9.70;94.00
19258;DHT22;9763;48.780;9.212;2022-11-24T00:58:01;9.80;93.70
19258;DHT22;9763;48.780;9.212;2022-11-24T01:01:26;9.80;93.00
19258;DHT22;9763;48.780;9.212;2022-11-24T01:04:55;9.80;92.30
19258;DHT22;9763;48.780;9.212;2022-11-24T01:08:19;9.80;91.80
19258;DHT22;9763;48.780;9.212;2022-11-24T01:11:43;9.80;91.30
19258;DHT22;9763;48.780;9.212;2022-11-24T01:15:26;9.70;90.90
19258;DHT22;9763;48.780;9.212;2022-11-24T01:18:51;9.70;90.50
19258;DHT22;9763;48.780;9.212;2022-11-24T01:22:17;9.60;90.30
19258;DHT22;9763;48.780;9.212;2022-11-24T01:25:41;9.60;90.30
19258;DHT22;9763;48.780;9.212;2022-11-24T01:29:05;9.60;90.80
19258;DHT22;9763;48.780;9.212;2022-11-24T01:32:29;9.50;91.40
19258;DHT22;9763;48.780;9.212;2022-11-24T01:35:55;9.50;91.70
19258;DHT22;9763;48.780;9.212;2022-11-24T01:39:20;9.50;91.70
19258;DHT22;9763;48.780;9.212;2022-11-24T01:42:47;9.50;91.70
19258;DHT22;9763;48.780;9.212;2022-11-24T01:46:16;9.50;92.20
19258;DHT22;9763;48.780;9.212;2022-11-24T01:49:46;9.60;93.00
19258;DHT22;9763;48.780;9.212;2022-11-24T01:53:14;9.60;93.40
19258;DHT22;9763;48.780;9.212;2022-11-24T01:56:42;9.60;93.80
19258;DHT22;9763;48.780;9.212;2022-11-24T02:00:12;9.70;93.90
19258;DHT22;9763;48.780;9.212;2022-11-24T02:03:39;9.80;94.10
19258;DHT22;9763;48.780;9.212;2022-11-24T02:10:30;9.90;94.60
19258;DHT22;9763;48.780;9.212;2022-11-24T02:13:57;10.00;94.10
19258;DHT22;9763;48.780;9.212;2022-11-24T02:17:21;10.00;94.20
19258;DHT22;9763;48.780;9.212;2022-11-24T02:24:15;10.20;93.40
19258;DHT22;9763;48.780;9.212;2022-11-24T02:31:15;10.30;92.60
19258;DHT22;9763;48.780;9.212;2022-11-24T02:41:27;10.30;91.40
19258;DHT22;9763;48.780;9.212;2022-11-24T02:44:56;10.30;90.40
19258;DHT22;9763;48.780;9.212;2022-11-24T02:48:22;10.30;91.30
19258;DHT22;9763;48.780;9.212;2022-11-24T02:51:46;10.20;91.90
19258;DHT22;9763;48.780;9.212;2022-11-24T02:55:10;10.10;92.00
19258;DHT22;9763;48.780;9.212;2022-11-24T02:58:34;10.10;91.90
19258;DHT22;9763;48.780;9.212;2022-11-24T03:01:59;10.10;91.60
19258;DHT22;9763;48.780;9.212;2022-11-24T03:05:24;10.10;91.30
19258;DHT22;9763;48.780;9.212;2022-11-24T03:08:48;10.00;91.20
19258;DHT22;9763;48.780;9.212;2022-11-24T03:12:12;10.00;91.10
19258;DHT22;9763;48.780;9.212;2022-11-24T03:15:35;10.00;90.90
19258;DHT22;9763;48.780;9.212;2022-11-24T03:19:01;9.90;91.20
19258;DHT22;9763;48.780;9.212;2022-11-24T03:22:25;9.80;90.70
19258;DHT22;9763;48.780;9.212;2022-11-24T03:32:38;9.90;90.70
19258;DHT22;9763;48.780;9.212;2022-11-24T03:36:05;9.80;90.10
19258;DHT22;9763;48.780;9.212;2022-11-24T03:39:30;9.80;91.00
19258;DHT22;9763;48.780;9.212;2022-11-24T03:42:53;9.70;91.40
19258;DHT22;9763;48.780;9.212;2022-11-24T03:46:17;9.70;91.40
19258;DHT22;9763;48.780;9.212;2022-11-24T03:56:31;9.80;90.50
19258;DHT22;9763;48.780;9.212;2022-11-24T03:59:54;9.80;91.50
19258;DHT22;9763;48.780;9.212;2022-11-24T04:03:18;9.70;92.00
19258;DHT22;9763;48.780;9.212;2022-11-24T04:06:43;9.70;92.20
19258;DHT22;9763;48.780;9.212;2022-11-24T04:10:08;9.70;92.00
19258;DHT22;9763;48.780;9.212;2022-11-24T04:13:32;9.60;91.40
19258;DHT22;9763;48.780;9.212;2022-11-24T04:30:33;9.70;89.50
19258;DHT22;9763;48.780;9.212;2022-11-24T04:33:57;9.80;90.70
19258;DHT22;9763;48.780;9.212;2022-11-24T04:37:20;9.60;91.10
19258;DHT22;9763;48.780;9.212;2022-11-24T04:44:09;9.70;90.80
19258;DHT22;9763;48.780;9.212;2022-11-24T04:47:32;9.70;91.80
19258;DHT22;9763;48.780;9.212;2022-11-24T04:50:56;9.60;92.50
19258;DHT22;9763;48.780;9.212;2022-11-24T04:54:20;9.60;92.70
19258;DHT22;9763;48.780;9.212;2022-11-24T04:57:43;9.60;93.00
19258;DHT22;9763;48.780;9.212;2022-11-24T05:01:08;9.70;92.90
19258;DHT22;9763;48.780;9.212;2022-11-24T05:04:32;9.70;93.10
19258;DHT22;9763;48.780;9.212;2022-11-24T05:07:57;9.70;93.30
19258;DHT22;9763;48.780;9.212;2022-11-24T05:11:21;9.80;93.20
19258;DHT22;9763;48.780;9.212;2022-11-24T05:14:45;9.80;92.90
19258;DHT22;9763;48.780;9.212;2022-11-24T05:18:12;9.80;92.70
19258;DHT22;9763;48.780;9.212;2022-11-24T05:21:37;9.80;92.30
19258;DHT22;9763;48.780;9.212;2022-11-24T05:25:01;9.80;91.90
19258;DHT22;9763;48.780;9.212;2022-11-24T05:28:24;9.80;91.80
19258;DHT22;9763;48.780;9.212;2022-11-24T05:31:48;9.70;91.40
19258;DHT22;9763;48.780;9.212;2022-11-24T05:35:13;9.70;91.00
19258;DHT22;9763;48.780;9.212;2022-11-24T05:38:38;9.70;90.50
19258;DHT22;9763;48.780;9.212;2022-11-24T05:42:02;9.70;90.40
19258;DHT22;9763;48.780;9.212;2022-11-24T05:45:42;9.60;90.40
19258;DHT22;9763;48.780;9.212;2022-11-24T05:49:06;9.60;90.40
19258;DHT22;9763;48.780;9.212;2022-11-24T05:52:31;9.60;90.60
19258;DHT22;9763;48.780;9.212;2022-11-24T05:59:19;9.60;89.20
19258;DHT22;9763;48.780;9.212;2022-11-24T06:19:52;9.70;90.20
19258;DHT22;9763;48.780;9.212;2022-11-24T06:23:15;9.70;91.40
19258;DHT22;9763;48.780;9.212;2022-11-24T06:26:40;9.60;92.10
19258;DHT22;9763;48.780;9.212;2022-11-24T06:30:05;9.60;92.60
19258;DHT22;9763;48.780;9.212;2022-11-24T06:33:30;9.60;93.10
19258;DHT22;9763;48.780;9.212;2022-11-24T06:36:54;9.60;93.20
19258;DHT22;9763;48.780;9.212;2022-11-24T06:40:18;9.70;93.20
19258;DHT22;9763;48.780;9.212;2022-11-24T06:43:43;9.70;93.20
19258;DHT22;9763;48.780;9.212;2022-11-24T06:47:08;9.80;93.00
19258;DHT22;9763;48.780;9.212;2022-11-24T06:50:32;9.80;93.20
19258;DHT22;9763;48.780;9.212;2022-11-24T06:53:56;9.80;93.20
19258;DHT22;9763;48.780;9.212;2022-11-24T06:57:20;9.90;93.30
19258;DHT22;9763;48.780;9.212;2022-11-24T07:00:51;10.00;92.90
19258;DHT22;9763;48.780;9.212;2022-11-24T07:04:15;10.00;92.90
19258;DHT22;9763;48.780;9.212;2022-11-24T07:07:39;10.00;93.00
19258;DHT22;9763;48.780;9.212;2022-11-24T07:11:04;10.00;92.80
19258;DHT22;9763;48.780;9.212;2022-11-24T07:14:29;10.10;92.80
19258;DHT22;9763;48.780;9.212;2022-11-24T07:17:54;10.10;92.90
19258;DHT22;9763;48.780;9.212;2022-11-24T07:21:19;10.20;92.80
19258;DHT22;9763;48.780;9.212;2022-11-24T07:24:44;10.20;92.60
19258;DHT22;9763;48.780;9.212;2022-11-24T07:28:08;10.20;92.70
19258;DHT22;9763;48.780;9.212;2022-11-24T07:31:31;10.20;92.60
19258;DHT22;9763;48.780;9.212;2022-11-24T07:34:56;10.20;92.70
19258;DHT22;9763;48.780;9.212;2022-11-24T07:38:20;10.20;92.50
19258;DHT22;9763;48.780;9.212;2022-11-24T07:41:44;10.20;92.50
19258;DHT22;9763;48.780;9.212;2022-11-24T07:45:08;10.20;92.10
19258;DHT22;9763;48.780;9.212;2022-11-24T07:48:32;10.20;92.20
19258;DHT22;9763;48.780;9.212;2022-11-24T07:51:57;10.20;92.30
19258;DHT22;9763;48.780;9.212;2022-11-24T07:55:21;10.20;92.80
19258;DHT22;9763;48.780;9.212;2022-11-24T07:58:45;10.10;92.30
19258;DHT22;9763;48.780;9.212;2022-11-24T08:02:14;10.20;91.80
19258;DHT22;9763;48.780;9.212;2022-11-24T08:19:36;10.10;92.30
19258;DHT22;9763;48.780;9.212;2022-11-24T08:23:00;10.10;92.20
19258;DHT22;9763;48.780;9.212;2022-11-24T08:36:37;10.20;92.10
19258;DHT22;9763;48.780;9.212;2022-11-24T08:50:16;10.20;91.40
19258;DHT22;9763;48.780;9.212;2022-11-24T08:53:40;10.10;93.00
19258;DHT22;9763;48.780;9.212;2022-11-24T08:57:04;10.20;91.30
19258;DHT22;9763;48.780;9.212;2022-11-24T09:00:29;10.20;92.80
19258;DHT22;9763;48.780;9.212;2022-11-24T09:03:52;10.20;93.40
19258;DHT22;9763;48.780;9.212;2022-11-24T09:07:16;10.20;93.60
19258;DHT22;9763;48.780;9.212;2022-11-24T09:10:40;10.20;93.80
19258;DHT22;9763;48.780;9.212;2022-11-24T09:14:04;10.50;93.60
19258;DHT22;9763;48.780;9.212;2022-11-24T09:17:29;10.20;93.80
19258;DHT22;9763;48.780;9.212;2022-11-24T09:20:52;10.20;93.90
19258;DHT22;9763;48.780;9.212;2022-11-24T09:24:19;10.30;94.00
19258;DHT22;9763;48.780;9.212;2022-11-24T09:27:42;10.30;94.20
19258;DHT22;9763;48.780;9.212;2022-11-24T09:31:07;10.60;94.70
19258;DHT22;9763;48.780;9.212;2022-11-24T09:34:33;10.50;94.60
19258;DHT22;9763;48.780;9.212;2022-11-24T09:37:57;10.60;95.00
19258;DHT22;9763;48.780;9.212;2022-11-24T09:41:42;10.60;94.80
19258;DHT22;9763;48.780;9.212;2022-11-24T09:45:26;10.70;94.10
19258;DHT22;9763;48.780;9.212;2022-11-24T09:49:28;10.70;92.70
19258;DHT22;9763;48.780;9.212;2022-11-24T09:53:02;10.70;92.80
19258;DHT22;9763;48.780;9.212;2022-11-24T09:56:34;10.70;92.90
19258;DHT22;9763;48.780;9.212;2022-11-24T10:00:10;10.70;93.50
19258;DHT22;9763;48.780;9.212;2022-11-24T10:03:38;10.70;93.90
19258;DHT22;9763;48.780;9.212;2022-11-24T10:07:13;10.80;94.00
19258;DHT22;9763;48.780;9.212;2022-11-24T10:10:53;10.80;93.90
19258;DHT22;9763;48.780;9.212;2022-11-24T10:14:41;10.90;93.90
19258;DHT22;9763;48.780;9.212;2022-11-24T10:18:36;10.90;93.60
19258;DHT22;9763;48.780;9.212;2022-11-24T10:22:20;11.00;94.80
19258;DHT22;9763;48.780;9.212;2022-11-24T10:25:56;11.10;96.40
19258;DHT22;9763;48.780;9.212;2022-11-24T10:29:25;11.30;97.40
19258;DHT22;9763;48.780;9.212;2022-11-24T10:32:56;11.50;97.50
19258;DHT22;9763;48.780;9.212;2022-11-24T10:36:30;11.60;96.60
19258;DHT22;9763;48.780;9.212;2022-11-24T10:40:10;11.00;94.60
19258;DHT22;9763;48.780;9.212;2022-11-24T10:44:01;11.80;94.70
19258;DHT22;9763;48.780;9.212;2022-11-24T10:47:25;11.80;94.60
19258;DHT22;9763;48.780;9.212;2022-11-24T10:57:42;12.40;96.30
19258;DHT22;9763;48.780;9.212;2022-11-24T11:01:26;12.40;99.90
19258;DHT22;9763;48.780;9.212;2022-11-24T11:04:54;12.70;99.30
19258;DHT22;9763;48.780;9.212;2022-11-24T11:08:21;12.80;98.20
19258;DHT22;9763;48.780;9.212;2022-11-24T11:40:15;12.80;92.10
19258;DHT22;9763;48.780;9.212;2022-11-24T11:43:40;12.80;94.90
19258;DHT22;9763;48.780;9.212;2022-11-24T11:47:22;12.80;96.20
19258;DHT22;9763;48.780;9.212;2022-11-24T11:50:53;12.80;95.70
19258;DHT22;9763;48.780;9.212;2022-11-24T11:54:58;12.90;96.30
19258;DHT22;9763;48.780;9.212;2022-11-24T12:03:07;12.90;93.00
19258;DHT22;9763;48.780;9.212;2022-11-24T12:06:59;12.80;91.30
19258;DHT22;9763;48.780;9.212;2022-11-24T12:10:41;12.80;90.70
19258;DHT22;9763;48.780;9.212;2022-11-24T12:14:16;12.60;90.70
19258;DHT22;9763;48.780;9.212;2022-11-24T12:17:49;12.50;91.60
19258;DHT22;9763;48.780;9.212;2022-11-24T12:21:18;10.20;91.60
19258;DHT22;9763;48.780;9.212;2022-11-24T12:24:55;12.40;94.00
19258;DHT22;9763;48.780;9.212;2022-11-24T12:28:35;12.40;94.40
19258;DHT22;9763;48.780;9.212;2022-11-24T12:32:15;12.50;95.60
19258;DHT22;9763;48.780;9.212;2022-11-24T12:35:55;12.60;96.70
19258;DHT22;9763;48.780;9.212;2022-11-24T12:39:29;12.70;95.60
19258;DHT22;9763;48.780;9.212;2022-11-24T12:43:06;12.80;95.50
19258;DHT22;9763;48.780;9.212;2022-11-24T12:46:43;12.90;94.20
19258;DHT22;9763;48.780;9.212;2022-11-24T12:50:17;12.90;93.90
19258;DHT22;9763;48.780;9.212;2022-11-24T12:53:43;12.90;93.80
19258;DHT22;9763;48.780;9.212;2022-11-24T12:57:15;12.90;93.40
19258;DHT22;9763;48.780;9.212;2022-11-24T13:00:54;12.90;93.20
19258;DHT22;9763;48.780;9.212;2022-11-24T13:04:45;12.90;93.40
19258;DHT22;9763;48.780;9.212;2022-11-24T13:08:16;13.00;93.70
19258;DHT22;9763;48.780;9.212;2022-11-24T13:11:42;13.00;95.20
19258;DHT22;9763;48.780;9.212;2022-11-24T13:15:13;13.10;93.00
19258;DHT22;9763;48.780;9.212;2022-11-24T13:18:59;13.20;91.00
19258;DHT22;9763;48.780;9.212;2022-11-24T13:22:25;13.10;92.00
19258;DHT22;9763;48.780;9.212;2022-11-24T13:29:38;13.10;90.10
19258;DHT22;9763;48.780;9.212;2022-11-24T13:33:26;13.10;91.40
19258;DHT22;9763;48.780;9.212;2022-11-24T13:40:42;12.90;90.00
19258;DHT22;9763;48.780;9.212;2022-11-24T13:44:26;12.90;90.60
19258;DHT22;9763;48.780;9.212;2022-11-24T13:47:50;12.90;90.40
19258;DHT22;9763;48.780;9.212;2022-11-24T13:58:29;12.90;90.20
19258;DHT22;9763;48.780;9.212;2022-11-24T14:05:22;13.00;90.30
19258;DHT22;9763;48.780;9.212;2022-11-24T14:15:58;12.80;87.30
19258;DHT22;9763;48.780;9.212;2022-11-24T14:19:24;12.80;87.30
19258;DHT22;9763;48.780;9.212;2022-11-24T14:40:38;12.30;85.60
19258;DHT22;9763;48.780;9.212;2022-11-24T14:51:14;12.10;85.90
19258;DHT22;9763;48.780;9.212;2022-11-24T15:05:18;12.10;90.00
19258;DHT22;9763;48.780;9.212;2022-11-24T15:12:21;12.10;90.00
19258;DHT22;9763;48.780;9.212;2022-11-24T15:19:29;12.20;90.10
19258;DHT22;9763;48.780;9.212;2022-11-24T15:23:20;12.20;87.90
19258;DHT22;9763;48.780;9.212;2022-11-24T15:33:35;12.20;89.00
19258;DHT22;9763;48.780;9.212;2022-11-24T15:43:48;12.10;88.10
19258;DHT22;9763;48.780;9.212;2022-11-24T15:50:35;12.00;86.40
19258;DHT22;9763;48.780;9.212;2022-11-24T15:53:59;11.90;86.20
19258;DHT22;9763;48.780;9.212;2022-11-24T15:57:23;11.80;85.20
19258;DHT22;9763;48.780;9.212;2022-11-24T16:07:38;11.60;84.30
19258;DHT22;9763;48.780;9.212;2022-11-24T16:11:02;11.60;84.00
19258;DHT22;9763;48.780;9.212;2022-11-24T16:28:03;11.10;82.10
19258;DHT22;9763;48.780;9.212;2022-11-24T16:34:52;10.90;81.80
19258;DHT22;9763;48.780;9.212;2022-11-24T16:38:16;10.80;82.20
19258;DHT22;9763;48.780;9.212;2022-11-24T16:41:41;10.60;81.30
19258;DHT22;9763;48.780;9.212;2022-11-24T16:45:05;10.60;83.10
19258;DHT22;9763;48.780;9.212;2022-11-24T16:51:59;10.40;82.10
19258;DHT22;9763;48.780;9.212;2022-11-24T16:55:23;10.40;80.90
19258;DHT22;9763;48.780;9.212;2022-11-24T16:58:46;10.40;83.10
19258;DHT22;9763;48.780;9.212;2022-11-24T17:02:12;10.40;83.70
19258;DHT22;9763;48.780;9.212;2022-11-24T17:05:35;10.20;83.70
19258;DHT22;9763;48.780;9.212;2022-11-24T17:09:00;10.10;83.50
19258;DHT22;9763;48.780;9.212;2022-11-24T17:12:24;10.00;83.30
19258;DHT22;9763;48.780;9.212;2022-11-24T17:15:47;10.20;84.10
19258;DHT22;9763;48.780;9.212;2022-11-24T17:19:15;10.00;84.00
19258;DHT22;9763;48.780;9.212;2022-11-24T17:22:39;9.90;85.10
19258;DHT22;9763;48.780;9.212;2022-11-24T17:26:05;9.90;85.10
19258;DHT22;9763;48.780;9.212;2022-11-24T17:29:31;9.80;84.80
19258;DHT22;9763;48.780;9.212;2022-11-24T17:32:55;9.70;84.00
19258;DHT22;9763;48.780;9.212;2022-11-24T17:36:19;9.80;83.30
19258;DHT22;9763;48.780;9.212;2022-11-24T17:53:48;9.60;83.00
19258;DHT22;9763;48.780;9.212;2022-11-24T18:17:40;9.40;82.90
19258;DHT22;9763;48.780;9.212;2022-11-24T18:34:43;9.20;83.00
19258;DHT22;9763;48.780;9.212;2022-11-24T19:22:26;8.80;83.10
19258;DHT22;9763;48.780;9.212;2022-11-24T19:25:51;8.80;82.80
19258;DHT22;9763;48.780;9.212;2022-11-24T19:46:17;8.60;82.10
19258;DHT22;9763;48.780;9.212;2022-11-24T19:49:41;8.70;83.60
19258;DHT22;9763;48.780;9.212;2022-11-24T19:53:05;8.50;82.20
19258;DHT22;9763;48.780;9.212;2022-11-24T19:56:30;8.50;83.20
19258;DHT22;9763;48.780;9.212;2022-11-24T20:03:20;8.50;82.30
19258;DHT22;9763;48.780;9.212;2022-11-24T20:06:45;8.50;83.60
19258;DHT22;9763;48.780;9.212;2022-11-24T20:10:09;8.40;84.00
19258;DHT22;9763;48.780;9.212;2022-11-24T20:13:34;8.40;83.50
19258;DHT22;9763;48.780;9.212;2022-11-24T20:17:00;8.40;82.30
19258;DHT22;9763;48.780;9.212;2022-11-24T20:20:25;8.40;83.40
19258;DHT22;9763;48.780;9.212;2022-11-24T20:27:16;8.40;82.60
19258;DHT22;9763;48.780;9.212;2022-11-24T20:30:40;8.40;81.90
19258;DHT22;9763;48.780;9.212;2022-11-24T20:34:06;8.30;83.00
19258;DHT22;9763;48.780;9.212;2022-11-24T20:41:00;8.30;82.90
19258;DHT22;9763;48.780;9.212;2022-11-24T20:51:21;8.20;83.40
19258;DHT22;9763;48.780;9.212;2022-11-24T20:54:46;8.10;82.50
19258;DHT22;9763;48.780;9.212;2022-11-24T21:01:36;8.10;82.90
19258;DHT22;9763;48.780;9.212;2022-11-24T21:08:26;8.00;83.60
19258;DHT22;9763;48.780;9.212;2022-11-24T21:18:41;8.00;84.50
19258;DHT22;9763;48.780;9.212;2022-11-24T21:22:07;8.00;84.50
19258;DHT22;9763;48.780;9.212;2022-11-24T21:25:35;8.00;85.10
19258;DHT22;9763;48.780;9.212;2022-11-24T21:29:00;8.00;84.90
19258;DHT22;9763;48.780;9.212;2022-11-24T21:32:25;8.00;84.80
19258;DHT22;9763;48.780;9.212;2022-11-24T21:35:50;7.90;83.40
19258;DHT22;9763;48.780;9.212;2022-11-24T21:39:14;7.90;83.30
19258;DHT22;9763;48.780;9.212;2022-11-24T21:42:40;7.90;82.80
19258;DHT22;9763;48.780;9.212;2022-11-24T21:46:05;7.80;83.00
19258;DHT22;9763;48.780;9.212;2022-11-24T21:56:24;7.80;81.80
19258;DHT22;9763;48.780;9.212;2022-11-24T21:59:49;7.90;83.00
19258;DHT22;9763;48.780;9.212;2022-11-24T22:06:36;7.60;82.40
19258;DHT22;9763;48.780;9.212;2022-11-24T22:10:00;7.70;83.10
19258;DHT22;9763;48.780;9.212;2022-11-24T22:13:24;7.70;82.80
19258;DHT22;9763;48.780;9.212;2022-11-24T22:16:48;7.60;82.60
19258;DHT22;9763;48.780;9.212;2022-11-24T22:20:12;7.60;83.10
19258;DHT22;9763;48.780;9.212;2022-11-24T22:23:36;7.60;83.20
19258;DHT22;9763;48.780;9.212;2022-11-24T22:27:00;7.60;83.20
19258;DHT22;9763;48.780;9.212;2022-11-24T22:30:24;7.60;83.20
19258;DHT22;9763;48.780;9.212;2022-11-24T22:33:50;7.60;83.30
19258;DHT22;9763;48.780;9.212;2022-11-24T22:37:14;7.60;83.40
19258;DHT22;9763;48.780;9.212;2022-11-24T22:40:37;7.60;83.20
19258;DHT22;9763;48.780;9.212;2022-11-24T22:44:01;7.50;82.60
19258;DHT22;9763;48.780;9.212;2022-11-24T22:50:50;7.50;82.40
19258;DHT22;9763;48.780;9.212;2022-11-24T22:57:38;7.40;82.20
19258;DHT22;9763;48.780;9.212;2022-11-24T23:01:10;7.40;82.10
19258;DHT22;9763;48.780;9.212;2022-11-24T23:08:00;7.30;81.90
19258;DHT22;9763;48.780;9.212;2022-11-24T23:11:25;7.30;82.10
19258;DHT22;9763;48.780;9.212;2022-11-24T23:25:10;7.10;81.80
19258;DHT22;9763;48.780;9.212;2022-11-24T23:28:34;7.10;81.80
19258;DHT22;9763;48.780;9.212;2022-11-24T23:35:22;6.90;82.40
19258;DHT22;9763;48.780;9.212;2022-11-24T23:38:46;6.90;82.80
19258;DHT22;9763;48.780;9.212;2022-11-24T23:42:11;6.90;83.10
19258;DHT22;9763;48.780;9.212;2022-11-24T23:52:24;6.90;83.40
19258;DHT22;9763;48.780;9.212;2022-11-24T23:55:52;6.80;83.10
19258;DHT22;9763;48.780;9.212;2022-11-24T23:59:17;6.80;84.00
